CheckWX is a tool to help pilots better visualize weather data.  It is not intended as a substitute for an official pre-flight weather briefing.

12:28:22 UTC

RPLL TAF
Ninoy Aquino International Airport
Manila, Philippines
TAF RPLL 201100Z 2012/2118 26010KT 9999 FEW025 SCT090 BKN300 TX32/2106Z TN27/2022Z TEMPO 2012/2018 25008KT 8000 -TSRA FEW023CB SCT025 BKN090 TEMPO 2018/2024 23006KT 7000 -RA SCT023 BKN090

Aug-20@
12:00 UTC

Aug-20 @ 12:00 UTC

Aug-21@
18:00 UTC

Aug-21 @ 18:00 UTC

TAF RPLL 201100Z 2012/2118 26010KT 9999 FEW025 SCT090 BKN300 TX32/2106Z TN27/2022Z
Wind
  • 260° at 10 KTS
Cloud Levels
  • Few at 2,500' AGL
  • Scattered at 9,000' AGL
  • Broken at 30,000' AGL

Aug-20@
12:00 UTC

Aug-20 @ 12:00 UTC

Aug-20@
18:00 UTC

Aug-20 @ 18:00 UTC

TEMPO 2012/2018 25008KT 8000 -TSRA FEW023CB SCT025 BKN090

Temporary

Temporary Changes expected for less than half the time period

Wind
  • 250° at 8 KTS
Conditions
Light Thunderstorm, Light Rain
Cloud Levels
  • Few at 2,300' AGL
  • Scattered at 2,500' AGL
  • Broken at 9,000' AGL

Aug-20@
18:00 UTC

Aug-20 @ 18:00 UTC

Aug-21@
00:00 UTC

Aug-21 @ 00:00 UTC

TEMPO 2018/2024 23006KT 7000 -RA SCT023 BKN090

Temporary

Temporary Changes expected for less than half the time period

Wind
  • 230° at 6 KTS
Conditions
Light Rain
Cloud Levels
  • Scattered at 2,300' AGL
  • Broken at 9,000' AGL